Time;durP1;ratioP1;P1;durP2;ratioP2;P2;SDS_P1;SDS_P2;PMS_P1;PMS_P2;Temp;Humidity;BMP_temperature;BMP_pressure;BME280_temperature;BME280_humidity;BME280_pressure;Samples;Min_cycle;Max_cycle;Signal;HPM_P1;HPM_P2
2022/05/05 00:00:15;;;;;;;31.05;5.05;;;;;;;9.32;100.00;95995.31;4993868;28;24441;-73
2022/05/05 00:02:42;;;;;;;31.73;4.23;;;;;;;9.39;100.00;95995.81;4993454;28;20843;-73
2022/05/05 00:05:09;;;;;;;20.93;4.80;;;;;;;9.20;100.00;95996.00;4993752;28;20836;-73
2022/05/05 00:07:35;;;;;;;8.98;4.20;;;;;;;9.14;100.00;95993.72;4993633;28;20768;-73
2022/05/05 00:14:23;;;;;;;29.58;5.18;;;;;;;9.15;100.00;95988.47;4993321;28;25009;-73
2022/05/05 00:15:34;;;;;;;4.32;3.90;;;;;;;8.93;100.00;96001.69;4993199;28;24575;-73
2022/05/05 00:18:01;;;;;;;5.85;4.55;;;;;;;9.11;100.00;95993.88;4993149;28;20772;-73
2022/05/05 00:20:27;;;;;;;4.45;4.05;;;;;;;9.14;100.00;95993.72;4993329;28;24475;-73
2022/05/05 00:22:53;;;;;;;5.07;4.57;;;;;;;9.21;100.00;95990.72;4993097;28;20760;-73
2022/05/05 00:25:21;;;;;;;5.60;4.55;;;;;;;9.29;100.00;95984.31;4993002;28;25012;-73
2022/05/05 00:27:47;;;;;;;15.02;4.97;;;;;;;9.29;100.00;95982.56;4992894;28;21356;-74
2022/05/05 00:30:14;;;;;;;12.90;4.30;;;;;;;9.36;100.00;95981.31;4993139;28;20771;-74
2022/05/05 00:32:40;;;;;;;19.02;4.90;;;;;;;9.44;100.00;95976.53;4992953;28;20780;-73
2022/05/05 00:35:08;;;;;;;12.93;4.22;;;;;;;9.26;100.00;95984.47;4992747;28;24420;-73
2022/05/05 00:37:34;;;;;;;4.78;4.38;;;;;;;9.14;100.00;95978.22;4993094;28;20775;-73
2022/05/05 00:40:00;;;;;;;12.80;5.23;;;;;;;9.16;100.00;95977.22;4992966;28;24448;-73
2022/05/05 00:42:28;;;;;;;6.07;5.47;;;;;;;9.22;100.00;95978.63;4992852;28;21174;-73
2022/05/05 00:44:55;;;;;;;9.85;5.00;;;;;;;9.26;100.00;95976.72;4992702;28;21432;-73
2022/05/05 00:47:22;;;;;;;5.53;4.80;;;;;;;9.28;100.00;95978.31;4992699;28;24838;-73
2022/05/05 00:49:50;;;;;;;9.20;5.25;;;;;;;9.25;100.00;95977.66;4992966;28;20769;-73
2022/05/05 00:52:16;;;;;;;11.10;5.43;;;;;;;9.20;100.00;95981.31;4992035;28;20832;-73
2022/05/05 00:54:43;;;;;;;6.55;4.85;;;;;;;9.25;100.00;95977.66;4992565;28;20776;-73
2022/05/05 00:57:10;;;;;;;8.10;3.95;;;;;;;9.26;100.00;95981.88;4992645;28;20780;-73
2022/05/05 00:59:38;;;;;;;8.82;4.93;;;;;;;9.12;100.00;95980.03;4992446;28;21335;-73
2022/05/05 01:02:05;;;;;;;8.73;5.32;;;;;;;9.00;100.00;95976.38;4992203;28;20798;-73
2022/05/05 01:04:33;;;;;;;24.33;5.60;;;;;;;9.06;100.00;95980.38;4992826;28;20772;-73
2022/05/05 01:07:00;;;;;;;11.00;4.95;;;;;;;9.10;100.00;95985.31;4992202;28;24809;-73
2022/05/05 01:09:27;;;;;;;10.40;5.25;;;;;;;9.02;100.00;95989.22;4991980;28;20811;-73
2022/05/05 01:11:53;;;;;;;8.40;4.18;;;;;;;9.01;100.00;95990.13;4992227;28;24507;-73
2022/05/05 01:14:20;;;;;;;12.13;4.25;;;;;;;8.98;100.00;95990.31;4992126;28;24445;-73
2022/05/05 01:16:48;;;;;;;5.43;4.40;;;;;;;8.92;100.00;95994.84;4992110;28;24467;-73
2022/05/05 01:19:14;;;;;;;14.32;4.60;;;;;;;9.07;100.00;95992.38;4992216;28;24479;-73
2022/05/05 01:21:50;;;;;;;7.55;3.85;;;;;;;9.10;100.00;95994.81;4992522;28;20764;-73
2022/05/05 01:24:16;;;;;;;7.75;4.00;;;;;;;8.92;100.00;95994.84;4992040;28;20648;-73
2022/05/05 01:29:27;;;;;;;14.10;3.88;;;;;;;8.75;100.00;95997.50;4991851;28;24969;-73
2022/05/05 01:31:53;;;;;;;6.28;3.50;;;;;;;8.70;100.00;95994.31;4991711;28;24843;-73
2022/05/05 01:34:20;;;;;;;3.78;3.47;;;;;;;8.73;100.00;95996.75;4991700;28;25009;-73
2022/05/05 01:36:47;;;;;;;3.60;2.97;;;;;;;8.70;100.00;96002.06;4991938;28;24433;-73
2022/05/05 01:39:14;;;;;;;8.48;3.25;;;;;;;8.65;100.00;95993.72;4992013;28;20775;-73
2022/05/05 01:41:40;;;;;;;2.97;2.75;;;;;;;8.62;100.00;96002.44;4991537;28;25183;-73
2022/05/05 01:44:06;;;;;;;3.13;2.83;;;;;;;8.48;100.00;95995.41;4991782;28;24476;-73
2022/05/05 01:46:33;;;;;;;7.37;3.33;;;;;;;8.43;100.00;96002.56;4991845;28;24491;-73
2022/05/05 01:48:59;;;;;;;3.38;3.08;;;;;;;8.40;100.00;96001.88;4991716;28;21328;-73
2022/05/05 01:51:26;;;;;;;8.70;3.80;;;;;;;8.30;100.00;96000.63;4991756;28;20784;-73
2022/05/05 01:53:53;;;;;;;3.08;2.83;;;;;;;8.37;100.00;96005.44;4991382;28;24412;-73
2022/05/05 01:56:21;;;;;;;3.70;3.40;;;;;;;8.42;100.00;96010.38;4991688;28;24487;-73
2022/05/05 01:58:47;;;;;;;3.75;3.40;;;;;;;8.48;100.00;96004.91;4991534;28;24428;-73
2022/05/05 02:01:13;;;;;;;3.45;3.17;;;;;;;8.50;100.00;96005.66;4991305;28;24958;-73
2022/05/05 02:03:40;;;;;;;8.48;4.03;;;;;;;8.54;100.00;96002.00;4990564;28;24466;-73
2022/05/05 02:06:07;;;;;;;4.20;3.83;;;;;;;8.51;100.00;95999.59;4991647;28;21162;-73
2022/05/05 02:08:34;;;;;;;4.07;3.70;;;;;;;8.49;100.00;96003.97;5010389;22;24468;-73
2022/05/05 02:11:02;;;;;;;3.95;3.65;;;;;;;8.52;100.00;96000.41;4971142;28;24449;-73
2022/05/05 02:13:28;;;;;;;4.30;3.90;;;;;;;8.56;100.00;95999.34;4982581;28;20772;-73
2022/05/05 02:15:55;;;;;;;4.40;4.05;;;;;;;8.56;100.00;95992.44;4990802;28;24455;-73
2022/05/05 02:18:21;;;;;;;4.47;4.03;;;;;;;8.62;100.00;95999.03;4991141;28;24826;-73
2022/05/05 02:20:47;;;;;;;3.90;3.53;;;;;;;8.75;100.00;96004.41;4985668;28;24438;-74
2022/05/05 02:23:15;;;;;;;16.15;3.80;;;;;;;8.90;100.00;96001.88;4980444;28;24488;-73
2022/05/05 02:25:42;;;;;;;8.75;3.67;;;;;;;8.94;100.00;95999.97;4991067;28;20768;-73
2022/05/05 02:28:10;;;;;;;6.78;3.42;;;;;;;8.71;100.00;95991.66;4990807;28;24946;-73
2022/05/05 02:30:36;;;;;;;9.27;3.95;;;;;;;8.62;100.00;96001.63;4984344;28;25011;-73
2022/05/05 02:33:03;;;;;;;11.13;4.32;;;;;;;8.56;100.00;96001.94;4986961;28;24475;-73
2022/05/05 02:35:29;;;;;;;4.05;3.75;;;;;;;8.57;100.00;95998.44;4991124;28;24516;-73
2022/05/05 02:40:40;;;;;;;5.18;4.03;;;;;;;8.53;100.00;96000.34;4990991;28;21072;-74
2022/05/05 02:43:08;;;;;;;5.78;4.43;;;;;;;8.53;100.00;95996.91;4990393;28;24425;-73
2022/05/05 02:45:35;;;;;;;6.47;4.53;;;;;;;8.53;100.00;95991.75;4990856;28;20771;-74
2022/05/05 02:48:04;;;;;;;4.20;3.90;;;;;;;8.55;100.00;96000.25;4991086;28;20858;-73
2022/05/05 02:50:30;;;;;;;8.40;5.10;;;;;;;8.57;100.00;95993.28;4990903;28;24970;-73
2022/05/05 02:52:57;;;;;;;32.15;5.00;;;;;;;8.46;100.00;96005.00;4990591;28;20784;-74
2022/05/05 02:55:23;;;;;;;16.65;4.63;;;;;;;8.40;100.00;96005.28;4990690;28;24417;-73
2022/05/05 02:57:49;;;;;;;7.90;4.20;;;;;;;8.44;100.00;95999.06;4990655;28;24432;-73
2022/05/05 03:00:17;;;;;;;10.50;4.37;;;;;;;8.48;100.00;95997.97;4990681;28;20812;-73
2022/05/05 03:02:45;;;;;;;5.83;5.33;;;;;;;8.59;100.00;95989.69;4990646;28;21297;-73
2022/05/05 03:05:14;;;;;;;13.27;4.10;;;;;;;8.75;100.00;95992.34;4990803;28;20781;-73
2022/05/05 03:07:41;;;;;;;7.45;4.30;;;;;;;8.74;100.00;95988.06;4990884;28;20864;-73
2022/05/05 03:10:09;;;;;;;37.30;4.22;;;;;;;8.66;100.00;95985.06;4990516;28;20799;-73
2022/05/05 03:12:36;;;;;;;24.60;4.20;;;;;;;8.50;100.00;95984.19;4990857;28;20808;-73
2022/05/05 03:15:02;;;;;;;23.60;4.60;;;;;;;8.39;100.00;95982.16;4992038;28;24420;-73
2022/05/05 03:17:29;;;;;;;6.97;4.18;;;;;;;8.37;100.00;95974.47;4994150;28;24432;-73
2022/05/05 03:19:56;;;;;;;18.50;3.95;;;;;;;8.39;100.00;95979.56;4994275;28;24425;-75
2022/05/05 03:22:23;;;;;;;17.48;4.03;;;;;;;8.26;100.00;95987.03;4993913;28;25001;-73
2022/05/05 03:24:50;;;;;;;45.15;4.50;;;;;;;8.30;100.00;95979.97;4994425;28;24425;-73
2022/05/05 03:27:16;;;;;;;22.05;3.92;;;;;;;8.36;100.00;95974.53;4994037;28;21354;-73
2022/05/05 03:29:42;;;;;;;9.70;3.22;;;;;;;8.35;100.00;95981.44;4994142;28;24440;-73
2022/05/05 03:32:09;;;;;;;6.82;3.70;;;;;;;8.31;100.00;95985.09;4993700;28;24457;-73
2022/05/05 03:34:35;;;;;;;5.32;3.45;;;;;;;8.36;100.00;95990.84;4993884;28;24795;-74
2022/05/05 03:37:04;;;;;;;3.38;3.10;;;;;;;8.40;100.00;95984.63;4993769;28;24803;-73
2022/05/05 03:39:30;;;;;;;6.73;2.97;;;;;;;8.41;100.00;95980.31;4993593;28;20860;-73
2022/05/05 03:41:56;;;;;;;25.23;3.97;;;;;;;8.21;100.00;95991.63;4994034;28;20815;-73
2022/05/05 03:44:23;;;;;;;34.97;3.50;;;;;;;8.13;100.00;95986.00;4993395;28;24950;-73
2022/05/05 03:46:49;;;;;;;5.05;2.83;;;;;;;8.27;100.00;95995.63;4993656;28;24416;-73
2022/05/05 03:49:16;;;;;;;6.15;3.20;;;;;;;8.37;100.00;95997.69;4993673;28;21429;-72
2022/05/05 03:51:42;;;;;;;4.40;3.80;;;;;;;8.40;100.00;96007.88;4993817;28;24432;-73
2022/05/05 03:54:10;;;;;;;4.20;3.80;;;;;;;8.45;100.00;96005.03;4993299;28;24465;-73
2022/05/05 03:56:36;;;;;;;7.38;3.58;;;;;;;8.49;100.00;96009.13;4993216;28;21196;-73
2022/05/05 03:59:03;;;;;;;17.33;4.10;;;;;;;8.77;100.00;96006.00;4993315;28;20764;-73
2022/05/05 04:01:29;;;;;;;8.90;3.25;;;;;;;8.84;100.00;96006.50;4993180;28;24432;-73
2022/05/05 04:03:56;;;;;;;21.42;4.15;;;;;;;8.66;100.00;96001.38;4992750;28;24455;-73
2022/05/05 04:06:22;;;;;;;7.80;3.25;;;;;;;8.56;100.00;96001.94;4992762;28;24503;-72
2022/05/05 04:08:49;;;;;;;8.52;3.55;;;;;;;8.51;100.00;96006.50;4992975;28;24823;-73
2022/05/05 04:11:17;;;;;;;11.98;3.78;;;;;;;8.56;100.00;96004.50;4993206;28;24950;-73
2022/05/05 04:13:44;;;;;;;22.13;3.85;;;;;;;8.64;100.00;96005.81;4992981;28;20784;-73
2022/05/05 04:16:11;;;;;;;30.38;4.00;;;;;;;8.59;100.00;96005.19;4993193;28;24524;-73
2022/05/05 04:18:37;;;;;;;22.25;3.75;;;;;;;8.61;100.00;96012.88;4992967;28;24525;-73
2022/05/05 04:21:04;;;;;;;28.13;3.10;;;;;;;8.70;100.00;96017.53;4992986;28;24950;-73
2022/05/05 04:23:30;;;;;;;15.67;2.97;;;;;;;8.57;100.00;96026.84;4992953;28;24421;-72
2022/05/05 04:25:57;;;;;;;8.93;2.67;;;;;;;8.32;100.00;96017.72;4992808;28;24428;-74
2022/05/05 04:28:25;;;;;;;11.75;2.83;;;;;;;8.23;100.00;96016.44;4992374;28;21297;-73
2022/05/05 04:30:52;;;;;;;11.63;2.72;;;;;;;8.29;100.00;96020.44;4992992;28;21173;-72
2022/05/05 04:33:18;;;;;;;7.22;2.80;;;;;;;8.28;100.00;96026.53;4992613;28;25000;-73
2022/05/05 04:35:45;;;;;;;2.75;2.55;;;;;;;8.20;100.00;96021.75;4992658;28;20803;-72
2022/05/05 04:38:12;;;;;;;3.55;2.60;;;;;;;8.17;100.00;96026.22;4992799;28;20866;-73
2022/05/05 04:40:38;;;;;;;3.03;2.70;;;;;;;8.18;100.00;96033.88;4992889;28;20819;-73
2022/05/05 04:43:04;;;;;;;9.18;3.42;;;;;;;8.23;100.00;96039.66;4992753;28;20826;-73
2022/05/05 04:45:32;;;;;;;4.88;3.63;;;;;;;8.25;100.00;96039.56;4992648;28;20764;-72
2022/05/05 04:47:59;;;;;;;4.65;3.80;;;;;;;8.31;100.00;96034.13;4992638;28;20813;-72
2022/05/05 04:50:25;;;;;;;5.10;3.55;;;;;;;8.37;100.00;96031.25;4992748;28;20883;-73
2022/05/05 04:52:52;;;;;;;9.32;3.70;;;;;;;8.40;100.00;96046.59;4992176;28;21354;-73
2022/05/05 04:55:18;;;;;;;9.45;3.30;;;;;;;8.52;100.00;96042.56;4992270;28;24472;-73
2022/05/05 04:57:45;;;;;;;23.43;3.47;;;;;;;8.58;100.00;96049.16;4992474;28;21293;-73
2022/05/05 05:00:12;;;;;;;9.90;3.28;;;;;;;8.66;100.00;96047.03;4992711;28;20789;-73
2022/05/05 05:02:40;;;;;;;4.20;3.45;;;;;;;8.56;100.00;96054.38;4992085;28;24421;-73
2022/05/05 05:05:07;;;;;;;8.35;4.30;;;;;;;8.51;100.00;96042.63;4992525;28;20857;-74
2022/05/05 05:07:34;;;;;;;4.97;4.57;;;;;;;8.56;100.00;96041.47;4992359;28;20795;-73
2022/05/05 05:10:00;;;;;;;8.02;5.38;;;;;;;8.59;100.00;96043.91;4992193;28;20867;-73
2022/05/05 05:12:27;;;;;;;7.00;5.18;;;;;;;8.62;100.00;96051.50;4991943;28;21119;-73
2022/05/05 05:14:53;;;;;;;5.03;4.60;;;;;;;8.56;100.00;96056.13;4992059;28;20772;-73
2022/05/05 05:17:20;;;;;;;3.95;3.55;;;;;;;8.62;100.00;96054.09;4991810;28;24471;-73
2022/05/05 05:19:48;;;;;;;4.70;4.30;;;;;;;8.73;100.00;96054.38;4992035;28;24652;-73
2022/05/05 05:22:14;;;;;;;5.13;4.68;;;;;;;8.82;100.00;96058.22;4991914;28;20799;-73
2022/05/05 05:24:40;;;;;;;23.92;5.75;;;;;;;8.80;100.00;96059.25;4991890;28;21298;-74
2022/05/05 05:27:07;;;;;;;7.85;4.57;;;;;;;8.86;100.00;96061.50;4991782;28;24432;-74
2022/05/05 05:29:33;;;;;;;6.63;4.95;;;;;;;8.93;100.00;96062.84;4991678;28;21309;-72
2022/05/05 05:32:00;;;;;;;5.35;4.75;;;;;;;8.96;100.00;96060.94;4991570;28;24432;-73
2022/05/05 05:34:26;;;;;;;5.60;4.82;;;;;;;9.03;100.00;96060.63;4991546;28;24449;-75
2022/05/05 05:36:54;;;;;;;5.28;4.88;;;;;;;9.08;100.00;96061.22;4990801;28;24545;-73
2022/05/05 05:39:21;;;;;;;6.00;5.32;;;;;;;9.14;100.00;96063.50;4957602;28;24438;-73
2022/05/05 05:41:47;;;;;;;6.28;5.40;;;;;;;9.26;100.00;96059.41;4960683;28;21309;-73
2022/05/05 05:44:14;;;;;;;6.10;5.30;;;;;;;9.34;100.00;96068.44;4957567;28;20841;-74
2022/05/05 05:46:40;;;;;;;5.85;5.25;;;;;;;9.45;100.00;96065.28;4982754;28;24443;-73
2022/05/05 05:49:07;;;;;;;6.13;5.38;;;;;;;9.41;100.00;96068.94;4979846;28;24446;-73
2022/05/05 05:51:33;;;;;;;6.22;5.63;;;;;;;9.39;100.00;96070.78;4975620;28;24465;-73
2022/05/05 05:54:01;;;;;;;5.77;5.27;;;;;;;9.41;100.00;96071.53;4977895;28;24481;-73
2022/05/05 05:56:27;;;;;;;5.75;5.20;;;;;;;9.42;100.00;96075.81;4971798;28;20831;-72
2022/05/05 05:58:54;;;;;;;5.00;4.50;;;;;;;9.50;100.00;96071.06;4971603;28;25020;-74
2022/05/05 06:03:53;;;;;;;5.22;4.72;;;;;;;9.53;100.00;96068.31;4971836;28;24438;-73
2022/05/05 06:04:06;;;;;;;5.33;4.83;;;;;;;9.58;100.00;96075.81;4971247;28;24422;-70
2022/05/05 06:06:32;;;;;;;5.97;5.27;;;;;;;9.63;100.00;96081.56;4971362;28;24839;-70
2022/05/05 06:08:59;;;;;;;6.55;5.05;;;;;;;9.51;100.00;96082.22;4970615;28;24501;-71
2022/05/05 06:11:26;;;;;;;5.00;4.50;;;;;;;9.51;100.00;96087.41;4974428;28;24982;-66
2022/05/05 06:13:53;;;;;;;4.70;4.25;;;;;;;9.49;100.00;96084.88;4976450;28;24453;-74
2022/05/05 06:16:20;;;;;;;4.82;4.20;;;;;;;9.45;100.00;96088.53;4969987;28;24450;-73
2022/05/05 06:18:47;;;;;;;4.80;4.40;;;;;;;9.42;100.00;96086.16;4962550;28;20887;-72
2022/05/05 06:21:13;;;;;;;6.15;4.22;;;;;;;9.46;100.00;96090.22;4971591;28;24504;-72
2022/05/05 06:23:41;;;;;;;4.43;4.03;;;;;;;9.52;100.00;96087.31;4971209;28;24472;-72
2022/05/05 06:26:07;;;;;;;4.68;4.28;;;;;;;9.53;100.00;96098.47;4963747;28;24842;-72
2022/05/05 06:28:35;;;;;;;9.30;5.05;;;;;;;9.52;100.00;96099.41;4954548;28;24418;-71
2022/05/05 06:31:02;;;;;;;5.22;4.72;;;;;;;9.56;100.00;96103.50;4971706;28;24461;-72
2022/05/05 06:33:28;;;;;;;7.25;4.97;;;;;;;9.56;100.00;96103.50;4970926;28;24986;-71
2022/05/05 06:35:54;;;;;;;7.32;5.55;;;;;;;9.67;100.00;96111.50;4971189;28;24441;-71
2022/05/05 06:38:22;;;;;;;5.63;5.00;;;;;;;9.78;100.00;96114.34;4980956;28;24441;-70
2022/05/05 06:40:49;;;;;;;7.40;5.18;;;;;;;9.81;100.00;96114.19;4971988;28;24848;-74
2022/05/05 06:43:16;;;;;;;6.45;5.57;;;;;;;9.72;100.00;96124.22;4970891;28;24425;-72
2022/05/05 06:45:43;;;;;;;7.00;4.88;;;;;;;9.81;100.00;96113.34;4971847;28;25095;-72
2022/05/05 06:48:10;;;;;;;5.13;4.57;;;;;;;9.80;100.00;96114.28;4971773;28;24831;-73
2022/05/05 06:50:36;;;;;;;6.18;4.68;;;;;;;9.85;100.00;96118.28;4973633;28;24824;-72
2022/05/05 06:53:03;;;;;;;4.55;4.03;;;;;;;9.93;100.00;96123.84;4974414;28;25029;-75
2022/05/05 06:55:29;;;;;;;6.70;4.45;;;;;;;9.94;100.00;96122.97;4975127;28;24444;-75
2022/05/05 06:57:55;;;;;;;7.03;4.72;;;;;;;9.97;100.00;96121.94;4981270;28;24444;-74
2022/05/05 07:00:22;;;;;;;5.70;5.20;;;;;;;9.95;100.00;96126.38;4991147;28;24457;-75
2022/05/05 07:02:49;;;;;;;5.85;5.20;;;;;;;10.04;100.00;96125.88;4974814;28;24963;-75
2022/05/05 07:05:24;;;;;;;6.22;5.20;;;;;;;10.05;100.00;96121.50;4974958;28;24445;-75
2022/05/05 07:07:51;;;;;;;8.93;5.55;;;;;;;10.15;100.00;96131.28;4974820;28;24803;-75
2022/05/05 07:13:02;;;;;;;9.05;5.68;;;;;;;10.35;100.00;96132.81;4974574;28;24456;-73
2022/05/05 07:15:28;;;;;;;6.15;5.22;;;;;;;10.33;100.00;96134.63;4967328;28;24844;-75
2022/05/05 07:17:56;;;;;;;7.25;5.93;;;;;;;10.27;100.00;96137.59;4974742;28;24991;-75
2022/05/05 07:20:23;;;;;;;6.38;5.78;;;;;;;10.30;100.00;96134.81;4974497;28;21191;-74
2022/05/05 07:22:51;;;;;;;6.17;5.57;;;;;;;10.41;100.00;96137.63;4974863;28;24595;-74
2022/05/05 07:25:18;;;;;;;7.30;5.78;;;;;;;10.40;100.00;96137.72;4974562;28;20773;-73
2022/05/05 07:27:44;;;;;;;6.77;5.67;;;;;;;10.37;100.00;96143.06;4974487;28;24516;-74
2022/05/05 07:30:12;;;;;;;5.88;5.28;;;;;;;10.51;100.00;96139.72;4974592;28;24445;-74
2022/05/05 07:32:39;;;;;;;5.72;5.13;;;;;;;10.46;100.00;96139.16;4973917;28;24812;-74
2022/05/05 07:35:09;;;;;;;6.00;5.07;;;;;;;10.54;100.00;96134.38;4974295;28;24458;-73
2022/05/05 07:37:36;;;;;;;5.90;5.40;;;;;;;10.53;100.00;96133.53;4974820;28;20811;-73
2022/05/05 07:40:03;;;;;;;6.78;6.00;;;;;;;10.48;100.00;96140.72;4974744;28;24493;-73
2022/05/05 07:42:29;;;;;;;9.20;5.90;;;;;;;10.61;100.00;96146.03;4974524;28;24445;-73
2022/05/05 07:44:56;;;;;;;6.25;5.65;;;;;;;10.70;100.00;96148.09;4974602;28;24463;-75
2022/05/05 07:47:22;;;;;;;6.00;5.30;;;;;;;10.75;100.00;96142.66;4973883;28;24441;-74
2022/05/05 07:49:49;;;;;;;5.97;5.38;;;;;;;10.98;100.00;96156.88;4974190;28;24438;-72
2022/05/05 07:52:17;;;;;;;7.38;5.72;;;;;;;10.99;100.00;96143.00;4974364;28;24437;-73
2022/05/05 07:54:44;;;;;;;7.97;5.95;;;;;;;10.91;100.00;96140.84;4974160;28;24464;-75
2022/05/05 07:57:12;;;;;;;7.17;6.33;;;;;;;10.93;100.00;96146.75;4973791;28;25074;-77
2022/05/05 07:59:40;;;;;;;8.17;6.93;;;;;;;10.99;100.00;96161.13;4970842;28;24546;-75
2022/05/05 08:02:09;;;;;;;6.47;5.88;;;;;;;11.02;100.00;96154.03;4970555;28;24438;-72
2022/05/05 08:04:35;;;;;;;6.90;6.20;;;;;;;10.99;100.00;96164.56;4974014;28;24491;-73
2022/05/05 08:07:02;;;;;;;7.63;6.75;;;;;;;11.00;100.00;96161.03;4973801;28;24440;-74
2022/05/05 08:09:30;;;;;;;8.95;7.38;;;;;;;10.93;100.00;96164.06;4973981;28;24500;-73
2022/05/05 08:11:59;;;;;;;8.38;7.07;;;;;;;10.91;100.00;96161.59;4974254;28;24437;-73
2022/05/05 08:14:26;;;;;;;8.45;7.20;;;;;;;10.87;100.00;96166.09;4973706;28;25052;-73
2022/05/05 08:16:52;;;;;;;8.27;7.20;;;;;;;10.86;100.00;96166.19;4973581;28;24820;-74
2022/05/05 08:19:20;;;;;;;8.50;7.57;;;;;;;10.83;100.00;96171.56;4973500;28;24999;-75
2022/05/05 08:21:47;;;;;;;8.95;7.82;;;;;;;11.00;100.00;96170.56;4973597;28;25052;-74
2022/05/05 08:29:43;;;;;;;8.75;7.82;;;;;;;10.96;100.00;96179.44;4973613;28;25012;-73
2022/05/05 08:32:10;;;;;;;10.50;7.20;;;;;;;10.91;100.00;96177.13;4973695;28;24448;-72
2022/05/05 08:34:36;;;;;;;8.18;7.35;;;;;;;10.93;100.00;96183.03;4973698;28;24449;-73
2022/05/05 08:37:03;;;;;;;8.27;7.47;;;;;;;10.94;100.00;96189.06;4973808;28;24444;-73
2022/05/05 08:39:30;;;;;;;8.70;7.80;;;;;;;10.87;100.00;96192.03;4973524;28;24430;-72
2022/05/05 08:41:56;;;;;;;13.02;8.70;;;;;;;10.83;100.00;96193.13;4973586;28;24496;-71
2022/05/05 08:44:24;;;;;;;10.77;8.75;;;;;;;10.89;100.00;96195.34;4973189;28;24437;-73
2022/05/05 08:46:53;;;;;;;8.57;7.78;;;;;;;10.87;100.00;96199.78;4973075;28;24525;-73
2022/05/05 08:49:23;;;;;;;9.90;8.82;;;;;;;10.89;100.00;96207.47;4973154;28;24472;-73
2022/05/05 08:51:53;;;;;;;10.90;9.18;;;;;;;10.99;100.00;96208.63;4973147;28;24529;-74
2022/05/05 08:54:23;;;;;;;9.93;8.93;;;;;;;10.90;100.00;96204.81;4957822;28;24478;-73
2022/05/05 08:56:50;;;;;;;11.60;8.98;;;;;;;10.87;100.00;96204.97;4973064;28;24438;-75
2022/05/05 08:59:17;;;;;;;10.30;8.35;;;;;;;10.99;100.00;96205.19;4973062;28;24541;-73
2022/05/05 09:01:46;;;;;;;19.45;9.85;;;;;;;11.03;100.00;96212.69;4972645;28;24476;-72
2022/05/05 09:04:12;;;;;;;10.27;8.83;;;;;;;11.09;100.00;96204.59;4972920;28;24539;-72
2022/05/05 09:06:43;;;;;;;10.70;9.43;;;;;;;11.10;100.00;96208.84;4953895;28;24434;-73
2022/05/05 09:09:27;;;;;;;11.30;10.00;;;;;;;11.18;100.00;96204.97;4953796;28;24438;-72
2022/05/05 09:12:10;;;;;;;12.98;10.32;;;;;;;11.24;100.00;96208.03;4956339;28;24441;-74
2022/05/05 09:14:38;;;;;;;13.40;11.45;;;;;;;11.22;100.00;96203.84;4953500;29;24528;-73
2022/05/05 09:17:07;;;;;;;16.20;10.80;;;;;;;11.23;100.00;96219.31;4953708;29;24434;-74
2022/05/05 09:19:37;;;;;;;13.60;10.73;;;;;;;11.17;100.00;96218.88;4953425;28;24430;-73
2022/05/05 09:22:04;;;;;;;16.08;10.70;;;;;;;11.22;100.00;96209.88;4969102;28;24441;-75
2022/05/05 09:24:40;;;;;;;16.48;11.90;;;;;;;11.22;100.00;96207.28;4956880;28;24445;-74
2022/05/05 09:27:21;;;;;;;13.30;11.90;;;;;;;11.29;100.00;96207.75;4972680;28;24491;-75
2022/05/05 09:30:07;;;;;;;17.05;13.75;;;;;;;11.32;100.00;96211.00;4972374;28;24449;-72
2022/05/05 09:32:36;;;;;;;14.77;13.27;;;;;;;11.32;100.00;96217.97;4971670;28;24440;-74
2022/05/05 09:35:07;;;;;;;15.10;13.57;;;;;;;11.30;100.00;96215.44;4972392;28;24446;-74
2022/05/05 09:37:33;;;;;;;14.52;13.13;;;;;;;11.29;100.00;96223.31;4972161;28;24441;-74
2022/05/05 09:40:01;;;;;;;16.08;13.02;;;;;;;11.52;100.00;96211.59;4972306;28;24418;-73
2022/05/05 09:42:36;;;;;;;14.02;12.55;;;;;;;11.52;100.00;96209.00;4971766;28;24437;-73
2022/05/05 09:45:19;;;;;;;16.10;12.77;;;;;;;11.41;100.00;96213.97;4973375;28;24534;-74
2022/05/05 09:47:52;;;;;;;20.03;12.53;;;;;;;11.39;100.00;96217.50;4972154;28;24441;-74
2022/05/05 09:50:20;;;;;;;19.48;14.00;;;;;;;11.24;100.00;96222.78;4972232;28;24855;-74
2022/05/05 09:58:19;;;;;;;16.80;12.38;;;;;;;11.39;100.00;96232.25;4971897;28;24405;-72
2022/05/05 10:00:49;;;;;;;14.48;13.07;;;;;;;11.35;100.00;96231.59;4972020;28;24428;-72
2022/05/05 10:06:19;;;;;;;15.67;13.43;;;;;;;11.38;100.00;96239.19;4971927;28;24511;-71
2022/05/05 10:08:47;;;;;;;14.52;13.02;;;;;;;11.47;100.00;96235.22;4984848;28;24495;-71
2022/05/05 10:11:15;;;;;;;16.40;14.30;;;;;;;11.43;100.00;96231.13;4990176;28;24495;-68
2022/05/05 10:13:42;;;;;;;19.90;13.27;;;;;;;11.47;100.00;96239.56;4970980;28;25073;-72
2022/05/05 10:16:09;;;;;;;15.18;12.70;;;;;;;11.44;100.00;96229.38;4971733;28;24437;-74
2022/05/05 10:18:38;;;;;;;17.67;12.65;;;;;;;11.43;100.00;96240.69;4972259;28;24433;-76
2022/05/05 10:21:07;;;;;;;15.63;13.45;;;;;;;11.49;100.00;96229.94;4971753;28;25037;-74
2022/05/05 10:23:43;;;;;;;15.70;12.48;;;;;;;11.56;100.00;96231.22;4971708;28;24457;-75
2022/05/05 10:26:11;;;;;;;19.40;13.47;;;;;;;11.54;100.00;96230.50;4971398;28;24618;-75
2022/05/05 10:28:43;;;;;;;15.38;12.50;;;;;;;11.56;100.00;96228.63;4971907;28;24437;-75
2022/05/05 10:31:13;;;;;;;14.45;11.52;;;;;;;11.62;100.00;96233.47;4971377;28;24443;-74
2022/05/05 10:34:01;;;;;;;16.98;12.63;;;;;;;11.73;100.00;96233.66;4971592;28;24437;-74
2022/05/05 10:36:28;;;;;;;17.77;12.98;;;;;;;11.73;100.00;96230.25;4971681;28;24504;-75
2022/05/05 10:38:55;;;;;;;13.45;12.07;;;;;;;11.66;100.00;96229.78;4971728;28;24787;-74
2022/05/05 10:41:39;;;;;;;17.65;13.63;;;;;;;11.57;100.00;96231.16;4971910;28;24434;-74
2022/05/05 10:44:25;;;;;;;16.83;13.32;;;;;;;11.49;100.00;96230.75;4971606;28;24455;-75
2022/05/05 10:47:01;;;;;;;17.27;13.18;;;;;;;11.56;100.00;96233.81;4971713;28;24795;-76
2022/05/05 10:49:46;;;;;;;16.45;13.30;;;;;;;11.58;100.00;96238.00;4971647;28;24516;-75
2022/05/05 10:52:31;;;;;;;15.98;12.93;;;;;;;11.84;100.00;96236.47;4971686;28;24484;-75
2022/05/05 10:54:58;;;;;;;14.40;12.82;;;;;;;11.73;100.00;96236.25;4972010;28;24446;-74
2022/05/05 10:57:41;;;;;;;13.98;12.07;;;;;;;11.69;100.00;96234.78;4971579;28;24959;-75
2022/05/05 11:00:09;;;;;;;21.10;13.43;;;;;;;11.69;100.00;96227.00;4971496;28;24983;-75
2022/05/05 11:02:36;;;;;;;16.08;13.02;;;;;;;11.88;100.00;96238.91;4971314;28;24445;-74
2022/05/05 11:05:27;;;;;;;18.45;12.88;;;;;;;11.71;100.00;96240.69;4970996;28;24430;-70
2022/05/05 11:07:54;;;;;;;15.60;12.75;;;;;;;11.60;100.00;96235.31;4971503;28;24861;-74
2022/05/05 11:11:39;;;;;;;18.30;13.40;;;;;;;11.59;100.00;96233.66;4970185;28;24503;-76
2022/05/05 11:13:37;;;;;;;14.93;12.93;;;;;;;11.47;100.00;96240.41;4932751;28;24434;-75
2022/05/05 11:22:10;;;;;;;16.20;12.67;;;;;;;11.56;100.00;96233.81;4970225;28;24428;-74
2022/05/05 11:24:37;;;;;;;17.23;12.73;;;;;;;11.65;100.00;96238.47;4970568;28;24437;-74
2022/05/05 11:27:05;;;;;;;16.27;13.70;;;;;;;11.69;100.00;96232.19;4970423;28;24422;-74
2022/05/05 11:29:32;;;;;;;21.05;13.40;;;;;;;11.85;100.00;96232.13;4970429;28;24503;-74
2022/05/05 11:32:00;;;;;;;15.45;13.52;;;;;;;11.71;100.00;96226.88;4952763;28;24446;-74
2022/05/05 11:34:34;;;;;;;15.25;12.73;;;;;;;11.92;100.00;96235.19;4950929;29;24463;-73
2022/05/05 11:37:01;;;;;;;14.90;13.40;;;;;;;12.04;100.00;96231.84;4960923;28;24473;-73
2022/05/05 11:39:31;;;;;;;17.02;13.40;;;;;;;12.33;100.00;96230.88;4973160;28;24455;-73
2022/05/05 11:42:04;;;;;;;19.85;13.13;;;;;;;12.48;100.00;96226.47;4973652;28;24433;-74
2022/05/05 11:44:30;;;;;;;14.82;13.32;;;;;;;12.62;100.00;96219.59;4973250;28;24437;-73
2022/05/05 11:46:58;;;;;;;16.83;13.90;;;;;;;12.58;100.00;96216.34;4973043;28;24437;-71
2022/05/05 11:49:32;;;;;;;17.52;13.27;;;;;;;12.55;100.00;96224.31;4973416;28;25014;-74
2022/05/05 11:51:59;;;;;;;15.93;14.43;;;;;;;12.66;100.00;96215.84;4973321;28;24437;-75
2022/05/05 11:54:28;;;;;;;19.52;14.80;;;;;;;12.84;100.00;96219.88;4972758;28;24449;-72
2022/05/05 11:56:57;;;;;;;17.58;13.82;;;;;;;12.90;100.00;96214.25;4972480;28;24418;-74
2022/05/05 12:02:11;;;;;;;18.95;14.35;;;;;;;13.14;100.00;96214.44;4972816;28;24488;-74